sensor_id;sensor_type;location;lat;lon;timestamp;pressure;altitude;pressure_sealevel;temperature
11321;BMP180;5715;48.234;14.320;2023-11-21T00:02:18;98048.00;;;11.00
11321;BMP180;5715;48.234;14.320;2023-11-21T00:05:12;98052.00;;;11.20
11321;BMP180;5715;48.234;14.320;2023-11-21T00:08:01;98044.00;;;11.20
11321;BMP180;5715;48.234;14.320;2023-11-21T00:10:49;98046.00;;;11.20
11321;BMP180;5715;48.234;14.320;2023-11-21T00:13:36;98045.00;;;11.20
11321;BMP180;5715;48.234;14.320;2023-11-21T00:16:25;98045.00;;;11.30
11321;BMP180;5715;48.234;14.320;2023-11-21T00:19:13;98039.00;;;11.20
11321;BMP180;5715;48.234;14.320;2023-11-21T00:22:00;98052.00;;;11.00
11321;BMP180;5715;48.234;14.320;2023-11-21T00:24:48;98040.00;;;11.10
11321;BMP180;5715;48.234;14.320;2023-11-21T00:27:36;98041.00;;;11.10
11321;BMP180;5715;48.234;14.320;2023-11-21T00:30:24;98044.00;;;11.10
11321;BMP180;5715;48.234;14.320;2023-11-21T00:33:11;98046.00;;;11.10
11321;BMP180;5715;48.234;14.320;2023-11-21T00:35:59;98036.00;;;11.10
11321;BMP180;5715;48.234;14.320;2023-11-21T00:38:48;98037.00;;;10.90
11321;BMP180;5715;48.234;14.320;2023-11-21T00:41:35;98042.00;;;11.00
11321;BMP180;5715;48.234;14.320;2023-11-21T00:44:23;98040.00;;;11.00
11321;BMP180;5715;48.234;14.320;2023-11-21T00:47:11;98047.00;;;11.00
11321;BMP180;5715;48.234;14.320;2023-11-21T00:49:59;98045.00;;;11.10
11321;BMP180;5715;48.234;14.320;2023-11-21T00:52:47;98043.00;;;11.10
11321;BMP180;5715;48.234;14.320;2023-11-21T00:55:34;98045.00;;;11.20
11321;BMP180;5715;48.234;14.320;2023-11-21T00:58:23;98042.00;;;11.30
11321;BMP180;5715;48.234;14.320;2023-11-21T01:01:11;98044.00;;;11.30
11321;BMP180;5715;48.234;14.320;2023-11-21T01:03:59;98041.00;;;11.30
11321;BMP180;5715;48.234;14.320;2023-11-21T01:06:46;98055.00;;;11.30
11321;BMP180;5715;48.234;14.320;2023-11-21T01:09:34;98055.00;;;11.20
11321;BMP180;5715;48.234;14.320;2023-11-21T01:12:22;98058.00;;;11.10
11321;BMP180;5715;48.234;14.320;2023-11-21T01:15:12;98062.00;;;11.20
11321;BMP180;5715;48.234;14.320;2023-11-21T01:18:00;98064.00;;;11.20
11321;BMP180;5715;48.234;14.320;2023-11-21T01:20:47;98053.00;;;11.30
11321;BMP180;5715;48.234;14.320;2023-11-21T01:23:35;98048.00;;;11.30
11321;BMP180;5715;48.234;14.320;2023-11-21T01:26:23;98044.00;;;11.30
11321;BMP180;5715;48.234;14.320;2023-11-21T01:29:10;98046.00;;;11.30
11321;BMP180;5715;48.234;14.320;2023-11-21T01:31:58;98046.00;;;11.40
11321;BMP180;5715;48.234;14.320;2023-11-21T01:34:45;98038.00;;;11.40
11321;BMP180;5715;48.234;14.320;2023-11-21T01:37:33;98041.00;;;11.50
11321;BMP180;5715;48.234;14.320;2023-11-21T01:40:21;98028.00;;;11.60
11321;BMP180;5715;48.234;14.320;2023-11-21T01:43:08;98027.00;;;11.70
11321;BMP180;5715;48.234;14.320;2023-11-21T01:45:57;98032.00;;;11.70
11321;BMP180;5715;48.234;14.320;2023-11-21T01:48:45;98033.00;;;11.80
11321;BMP180;5715;48.234;14.320;2023-11-21T01:51:32;98034.00;;;11.90
11321;BMP180;5715;48.234;14.320;2023-11-21T01:54:22;98029.00;;;11.90
11321;BMP180;5715;48.234;14.320;2023-11-21T01:57:09;98030.00;;;12.00
11321;BMP180;5715;48.234;14.320;2023-11-21T02:00:01;98029.00;;;12.00
11321;BMP180;5715;48.234;14.320;2023-11-21T02:02:58;98032.00;;;12.00
11321;BMP180;5715;48.234;14.320;2023-11-21T02:05:47;98027.00;;;11.90
11321;BMP180;5715;48.234;14.320;2023-11-21T02:08:35;98032.00;;;11.90
11321;BMP180;5715;48.234;14.320;2023-11-21T02:11:25;98038.00;;;11.90
11321;BMP180;5715;48.234;14.320;2023-11-21T02:14:14;98032.00;;;11.80
11321;BMP180;5715;48.234;14.320;2023-11-21T02:17:02;98040.00;;;11.80
11321;BMP180;5715;48.234;14.320;2023-11-21T02:19:50;98033.00;;;11.70
11321;BMP180;5715;48.234;14.320;2023-11-21T02:22:41;98025.00;;;11.60
11321;BMP180;5715;48.234;14.320;2023-11-21T02:25:32;98028.00;;;11.50
11321;BMP180;5715;48.234;14.320;2023-11-21T02:28:20;98041.00;;;11.50
11321;BMP180;5715;48.234;14.320;2023-11-21T02:31:13;98045.00;;;11.50
11321;BMP180;5715;48.234;14.320;2023-11-21T02:34:01;98049.00;;;11.50
11321;BMP180;5715;48.234;14.320;2023-11-21T02:36:48;98046.00;;;11.50
11321;BMP180;5715;48.234;14.320;2023-11-21T02:39:39;98034.00;;;11.60
11321;BMP180;5715;48.234;14.320;2023-11-21T02:42:26;98041.00;;;11.50
11321;BMP180;5715;48.234;14.320;2023-11-21T02:45:15;98045.00;;;11.50
11321;BMP180;5715;48.234;14.320;2023-11-21T02:48:06;98039.00;;;11.60
11321;BMP180;5715;48.234;14.320;2023-11-21T02:50:53;98038.00;;;11.60
11321;BMP180;5715;48.234;14.320;2023-11-21T02:53:41;98032.00;;;11.70
11321;BMP180;5715;48.234;14.320;2023-11-21T02:56:29;98026.00;;;11.60
11321;BMP180;5715;48.234;14.320;2023-11-21T02:59:16;98031.00;;;11.60
11321;BMP180;5715;48.234;14.320;2023-11-21T03:02:04;98029.00;;;11.70
11321;BMP180;5715;48.234;14.320;2023-11-21T03:04:55;98033.00;;;11.70
11321;BMP180;5715;48.234;14.320;2023-11-21T03:07:43;98039.00;;;11.80
11321;BMP180;5715;48.234;14.320;2023-11-21T03:10:30;98038.00;;;11.90
11321;BMP180;5715;48.234;14.320;2023-11-21T03:13:18;98022.00;;;11.90
11321;BMP180;5715;48.234;14.320;2023-11-21T03:16:07;98036.00;;;12.00
11321;BMP180;5715;48.234;14.320;2023-11-21T03:18:55;98034.00;;;12.10
11321;BMP180;5715;48.234;14.320;2023-11-21T03:21:43;98026.00;;;12.20
11321;BMP180;5715;48.234;14.320;2023-11-21T03:24:31;98033.00;;;12.20
11321;BMP180;5715;48.234;14.320;2023-11-21T03:27:18;98021.00;;;12.40
11321;BMP180;5715;48.234;14.320;2023-11-21T03:30:09;98017.00;;;12.50
11321;BMP180;5715;48.234;14.320;2023-11-21T03:32:57;98006.00;;;12.50
11321;BMP180;5715;48.234;14.320;2023-11-21T03:35:44;98016.00;;;12.50
11321;BMP180;5715;48.234;14.320;2023-11-21T03:38:32;98005.00;;;12.50
11321;BMP180;5715;48.234;14.320;2023-11-21T03:41:19;98006.00;;;12.60
11321;BMP180;5715;48.234;14.320;2023-11-21T03:44:07;98010.00;;;12.50
11321;BMP180;5715;48.234;14.320;2023-11-21T03:46:54;98003.00;;;12.50
11321;BMP180;5715;48.234;14.320;2023-11-21T03:49:42;98006.00;;;12.60
11321;BMP180;5715;48.234;14.320;2023-11-21T03:52:30;98013.00;;;12.50
11321;BMP180;5715;48.234;14.320;2023-11-21T03:55:17;98018.00;;;12.50
11321;BMP180;5715;48.234;14.320;2023-11-21T03:58:05;98013.00;;;12.50
11321;BMP180;5715;48.234;14.320;2023-11-21T04:00:53;98013.00;;;12.50
11321;BMP180;5715;48.234;14.320;2023-11-21T04:03:40;98013.00;;;12.50
11321;BMP180;5715;48.234;14.320;2023-11-21T04:06:28;98015.00;;;12.60
11321;BMP180;5715;48.234;14.320;2023-11-21T04:09:16;98002.00;;;12.60
11321;BMP180;5715;48.234;14.320;2023-11-21T04:12:03;98000.00;;;12.60
11321;BMP180;5715;48.234;14.320;2023-11-21T04:14:51;97998.00;;;12.60
11321;BMP180;5715;48.234;14.320;2023-11-21T04:17:42;97991.00;;;12.70
11321;BMP180;5715;48.234;14.320;2023-11-21T04:20:30;97999.00;;;12.70
11321;BMP180;5715;48.234;14.320;2023-11-21T04:23:17;98004.00;;;12.60
11321;BMP180;5715;48.234;14.320;2023-11-21T04:26:05;97999.00;;;12.80
11321;BMP180;5715;48.234;14.320;2023-11-21T04:28:53;97994.00;;;12.90
11321;BMP180;5715;48.234;14.320;2023-11-21T04:31:41;97995.00;;;12.80
11321;BMP180;5715;48.234;14.320;2023-11-21T04:34:29;97997.00;;;13.00
11321;BMP180;5715;48.234;14.320;2023-11-21T04:37:19;97998.00;;;13.00
11321;BMP180;5715;48.234;14.320;2023-11-21T04:40:07;98010.00;;;12.90
11321;BMP180;5715;48.234;14.320;2023-11-21T04:42:56;98002.00;;;12.90
11321;BMP180;5715;48.234;14.320;2023-11-21T04:45:44;97990.00;;;12.90
11321;BMP180;5715;48.234;14.320;2023-11-21T04:48:32;97993.00;;;12.90
11321;BMP180;5715;48.234;14.320;2023-11-21T04:51:19;97988.00;;;12.90
11321;BMP180;5715;48.234;14.320;2023-11-21T04:54:07;97995.00;;;12.90
11321;BMP180;5715;48.234;14.320;2023-11-21T04:56:54;97995.00;;;12.90
11321;BMP180;5715;48.234;14.320;2023-11-21T04:59:42;98011.00;;;12.90
11321;BMP180;5715;48.234;14.320;2023-11-21T05:02:30;98007.00;;;12.90
11321;BMP180;5715;48.234;14.320;2023-11-21T05:05:22;98008.00;;;12.80
11321;BMP180;5715;48.234;14.320;2023-11-21T05:08:10;98010.00;;;12.80
11321;BMP180;5715;48.234;14.320;2023-11-21T05:10:57;98028.00;;;12.60
11321;BMP180;5715;48.234;14.320;2023-11-21T05:13:45;98031.00;;;12.90
11321;BMP180;5715;48.234;14.320;2023-11-21T05:16:32;98032.00;;;12.90
11321;BMP180;5715;48.234;14.320;2023-11-21T05:19:21;98022.00;;;12.80
11321;BMP180;5715;48.234;14.320;2023-11-21T05:22:08;98013.00;;;12.80
11321;BMP180;5715;48.234;14.320;2023-11-21T05:24:56;98012.00;;;12.90
11321;BMP180;5715;48.234;14.320;2023-11-21T05:27:45;98021.00;;;13.00
11321;BMP180;5715;48.234;14.320;2023-11-21T05:30:33;98024.00;;;13.00
11321;BMP180;5715;48.234;14.320;2023-11-21T05:33:21;98023.00;;;13.00
11321;BMP180;5715;48.234;14.320;2023-11-21T05:36:09;98018.00;;;13.00
11321;BMP180;5715;48.234;14.320;2023-11-21T05:38:57;98021.00;;;13.10
11321;BMP180;5715;48.234;14.320;2023-11-21T05:41:44;98017.00;;;13.10
11321;BMP180;5715;48.234;14.320;2023-11-21T05:44:41;98013.00;;;13.30
11321;BMP180;5715;48.234;14.320;2023-11-21T05:47:29;98025.00;;;13.30
11321;BMP180;5715;48.234;14.320;2023-11-21T05:50:17;98018.00;;;13.40
11321;BMP180;5715;48.234;14.320;2023-11-21T05:53:05;98029.00;;;13.40
11321;BMP180;5715;48.234;14.320;2023-11-21T05:55:53;98023.00;;;13.50
11321;BMP180;5715;48.234;14.320;2023-11-21T05:58:41;98035.00;;;13.60
11321;BMP180;5715;48.234;14.320;2023-11-21T06:01:28;98036.00;;;13.60
11321;BMP180;5715;48.234;14.320;2023-11-21T06:04:16;98040.00;;;13.50
11321;BMP180;5715;48.234;14.320;2023-11-21T06:07:04;98040.00;;;13.60
11321;BMP180;5715;48.234;14.320;2023-11-21T06:09:52;98046.00;;;13.60
11321;BMP180;5715;48.234;14.320;2023-11-21T06:12:41;98042.00;;;13.60
11321;BMP180;5715;48.234;14.320;2023-11-21T06:15:30;98052.00;;;13.70
11321;BMP180;5715;48.234;14.320;2023-11-21T06:18:18;98056.00;;;13.60
11321;BMP180;5715;48.234;14.320;2023-11-21T06:21:12;98055.00;;;13.70
11321;BMP180;5715;48.234;14.320;2023-11-21T06:24:00;98060.00;;;13.70
11321;BMP180;5715;48.234;14.320;2023-11-21T06:26:48;98059.00;;;13.80
11321;BMP180;5715;48.234;14.320;2023-11-21T06:29:36;98064.00;;;13.70
11321;BMP180;5715;48.234;14.320;2023-11-21T06:32:24;98071.00;;;13.80
11321;BMP180;5715;48.234;14.320;2023-11-21T06:35:12;98075.00;;;13.80
11321;BMP180;5715;48.234;14.320;2023-11-21T06:38:00;98075.00;;;13.80
11321;BMP180;5715;48.234;14.320;2023-11-21T06:40:48;98069.00;;;13.80
11321;BMP180;5715;48.234;14.320;2023-11-21T06:43:35;98069.00;;;13.90
11321;BMP180;5715;48.234;14.320;2023-11-21T06:46:23;98074.00;;;14.00
11321;BMP180;5715;48.234;14.320;2023-11-21T06:49:11;98067.00;;;14.00
11321;BMP180;5715;48.234;14.320;2023-11-21T06:51:59;98072.00;;;14.10
11321;BMP180;5715;48.234;14.320;2023-11-21T06:54:48;98070.00;;;14.10
11321;BMP180;5715;48.234;14.320;2023-11-21T06:57:38;98072.00;;;14.20
11321;BMP180;5715;48.234;14.320;2023-11-21T07:00:26;98063.00;;;14.20
11321;BMP180;5715;48.234;14.320;2023-11-21T07:03:16;98070.00;;;14.30
11321;BMP180;5715;48.234;14.320;2023-11-21T07:06:07;98075.00;;;14.10
11321;BMP180;5715;48.234;14.320;2023-11-21T07:08:55;98082.00;;;14.20
11321;BMP180;5715;48.234;14.320;2023-11-21T07:11:42;98080.00;;;14.30
11321;BMP180;5715;48.234;14.320;2023-11-21T07:14:30;98085.00;;;14.00
11321;BMP180;5715;48.234;14.320;2023-11-21T07:17:18;98085.00;;;14.20
11321;BMP180;5715;48.234;14.320;2023-11-21T07:20:06;98086.00;;;14.30
11321;BMP180;5715;48.234;14.320;2023-11-21T07:22:54;98087.00;;;14.40
11321;BMP180;5715;48.234;14.320;2023-11-21T07:25:41;98088.00;;;14.40
11321;BMP180;5715;48.234;14.320;2023-11-21T07:28:30;98091.00;;;14.40
11321;BMP180;5715;48.234;14.320;2023-11-21T07:31:18;98097.00;;;14.70
11321;BMP180;5715;48.234;14.320;2023-11-21T07:34:09;98086.00;;;14.80
11321;BMP180;5715;48.234;14.320;2023-11-21T07:36:57;98095.00;;;14.90
11321;BMP180;5715;48.234;14.320;2023-11-21T07:39:45;98099.00;;;14.90
11321;BMP180;5715;48.234;14.320;2023-11-21T07:42:34;98108.00;;;15.00
11321;BMP180;5715;48.234;14.320;2023-11-21T07:45:22;98107.00;;;15.10
11321;BMP180;5715;48.234;14.320;2023-11-21T07:48:10;98115.00;;;15.10
11321;BMP180;5715;48.234;14.320;2023-11-21T07:50:58;98110.00;;;15.20
11321;BMP180;5715;48.234;14.320;2023-11-21T07:53:46;98103.00;;;15.40
11321;BMP180;5715;48.234;14.320;2023-11-21T07:56:34;98113.00;;;15.40
11321;BMP180;5715;48.234;14.320;2023-11-21T07:59:21;98117.00;;;15.50
11321;BMP180;5715;48.234;14.320;2023-11-21T08:02:09;98123.00;;;15.60
11321;BMP180;5715;48.234;14.320;2023-11-21T08:04:56;98117.00;;;15.70
11321;BMP180;5715;48.234;14.320;2023-11-21T08:07:44;98124.00;;;15.60
11321;BMP180;5715;48.234;14.320;2023-11-21T08:10:32;98119.00;;;15.70
11321;BMP180;5715;48.234;14.320;2023-11-21T08:13:20;98131.00;;;15.70
11321;BMP180;5715;48.234;14.320;2023-11-21T08:16:08;98120.00;;;15.70
11321;BMP180;5715;48.234;14.320;2023-11-21T08:18:55;98120.00;;;15.70
11321;BMP180;5715;48.234;14.320;2023-11-21T08:21:44;98112.00;;;15.70
11321;BMP180;5715;48.234;14.320;2023-11-21T08:24:33;98113.00;;;15.90
11321;BMP180;5715;48.234;14.320;2023-11-21T08:27:20;98121.00;;;16.00
11321;BMP180;5715;48.234;14.320;2023-11-21T08:30:08;98117.00;;;16.10
11321;BMP180;5715;48.234;14.320;2023-11-21T08:32:56;98117.00;;;16.20
11321;BMP180;5715;48.234;14.320;2023-11-21T08:35:45;98116.00;;;16.20
11321;BMP180;5715;48.234;14.320;2023-11-21T08:38:33;98122.00;;;16.40
11321;BMP180;5715;48.234;14.320;2023-11-21T08:41:24;98115.00;;;16.50
11321;BMP180;5715;48.234;14.320;2023-11-21T08:44:12;98118.00;;;16.70
11321;BMP180;5715;48.234;14.320;2023-11-21T08:46:59;98117.00;;;16.70
11321;BMP180;5715;48.234;14.320;2023-11-21T08:49:47;98117.00;;;17.00
11321;BMP180;5715;48.234;14.320;2023-11-21T08:52:35;98120.00;;;16.90
11321;BMP180;5715;48.234;14.320;2023-11-21T08:55:24;98128.00;;;16.80
11321;BMP180;5715;48.234;14.320;2023-11-21T08:58:12;98133.00;;;16.00
11321;BMP180;5715;48.234;14.320;2023-11-21T09:00:59;98129.00;;;16.20
11321;BMP180;5715;48.234;14.320;2023-11-21T09:03:47;98126.00;;;16.40
11321;BMP180;5715;48.234;14.320;2023-11-21T09:06:35;98126.00;;;15.70
11321;BMP180;5715;48.234;14.320;2023-11-21T09:09:22;98125.00;;;15.80
11321;BMP180;5715;48.234;14.320;2023-11-21T09:12:12;98123.00;;;16.50
11321;BMP180;5715;48.234;14.320;2023-11-21T09:14:59;98117.00;;;16.60
11321;BMP180;5715;48.234;14.320;2023-11-21T09:17:47;98119.00;;;16.70
11321;BMP180;5715;48.234;14.320;2023-11-21T09:20:35;98121.00;;;17.00
11321;BMP180;5715;48.234;14.320;2023-11-21T09:23:24;98125.00;;;17.10
11321;BMP180;5715;48.234;14.320;2023-11-21T09:26:12;98124.00;;;17.30
11321;BMP180;5715;48.234;14.320;2023-11-21T09:29:00;98128.00;;;17.30
11321;BMP180;5715;48.234;14.320;2023-11-21T09:31:49;98134.00;;;17.50
11321;BMP180;5715;48.234;14.320;2023-11-21T09:34:42;98139.00;;;17.50
11321;BMP180;5715;48.234;14.320;2023-11-21T09:37:31;98138.00;;;17.60
11321;BMP180;5715;48.234;14.320;2023-11-21T09:40:22;98143.00;;;17.70
11321;BMP180;5715;48.234;14.320;2023-11-21T09:43:17;98130.00;;;17.80
11321;BMP180;5715;48.234;14.320;2023-11-21T09:46:08;98127.00;;;17.70
11321;BMP180;5715;48.234;14.320;2023-11-21T09:49:02;98124.00;;;17.80
11321;BMP180;5715;48.234;14.320;2023-11-21T09:51:55;98127.00;;;18.10
11321;BMP180;5715;48.234;14.320;2023-11-21T09:54:46;98124.00;;;17.90
11321;BMP180;5715;48.234;14.320;2023-11-21T09:57:35;98116.00;;;18.00
11321;BMP180;5715;48.234;14.320;2023-11-21T10:00:23;98110.00;;;18.00
11321;BMP180;5715;48.234;14.320;2023-11-21T10:03:11;98106.00;;;18.20
11321;BMP180;5715;48.234;14.320;2023-11-21T10:06:01;98109.00;;;17.90
11321;BMP180;5715;48.234;14.320;2023-11-21T10:08:51;98112.00;;;18.00
11321;BMP180;5715;48.234;14.320;2023-11-21T10:11:43;98110.00;;;18.00
11321;BMP180;5715;48.234;14.320;2023-11-21T10:14:36;98109.00;;;18.30
11321;BMP180;5715;48.234;14.320;2023-11-21T10:17:28;98108.00;;;18.20
11321;BMP180;5715;48.234;14.320;2023-11-21T10:20:24;98112.00;;;18.20
11321;BMP180;5715;48.234;14.320;2023-11-21T10:23:14;98113.00;;;18.00
11321;BMP180;5715;48.234;14.320;2023-11-21T10:26:05;98116.00;;;18.10
11321;BMP180;5715;48.234;14.320;2023-11-21T10:29:05;98114.00;;;18.10
11321;BMP180;5715;48.234;14.320;2023-11-21T10:31:53;98119.00;;;18.20
11321;BMP180;5715;48.234;14.320;2023-11-21T10:34:56;98116.00;;;18.10
11321;BMP180;5715;48.234;14.320;2023-11-21T10:37:44;98109.00;;;18.10
11321;BMP180;5715;48.234;14.320;2023-11-21T10:40:32;98106.00;;;18.10
11321;BMP180;5715;48.234;14.320;2023-11-21T10:43:19;98111.00;;;18.20
11321;BMP180;5715;48.234;14.320;2023-11-21T10:46:08;98110.00;;;18.10
11321;BMP180;5715;48.234;14.320;2023-11-21T10:48:56;98108.00;;;18.00
11321;BMP180;5715;48.234;14.320;2023-11-21T10:51:44;98114.00;;;18.00
11321;BMP180;5715;48.234;14.320;2023-11-21T10:54:32;98110.00;;;18.10
11321;BMP180;5715;48.234;14.320;2023-11-21T10:57:22;98108.00;;;18.30
11321;BMP180;5715;48.234;14.320;2023-11-21T11:00:11;98112.00;;;18.20
11321;BMP180;5715;48.234;14.320;2023-11-21T11:03:02;98123.00;;;18.40
11321;BMP180;5715;48.234;14.320;2023-11-21T11:05:52;98110.00;;;18.40
11321;BMP180;5715;48.234;14.320;2023-11-21T11:08:42;98115.00;;;18.50
11321;BMP180;5715;48.234;14.320;2023-11-21T11:11:30;98105.00;;;18.30
11321;BMP180;5715;48.234;14.320;2023-11-21T11:14:19;98112.00;;;18.50
11321;BMP180;5715;48.234;14.320;2023-11-21T11:17:08;98110.00;;;18.60
11321;BMP180;5715;48.234;14.320;2023-11-21T11:19:58;98110.00;;;18.70
11321;BMP180;5715;48.234;14.320;2023-11-21T11:29:47;98109.00;;;18.50
11321;BMP180;5715;48.234;14.320;2023-11-21T11:36:26;98112.00;;;18.70
11321;BMP180;5715;48.234;14.320;2023-11-21T11:39:38;98106.00;;;18.80
11321;BMP180;5715;48.234;14.320;2023-11-21T11:42:27;98109.00;;;18.70
11321;BMP180;5715;48.234;14.320;2023-11-21T11:45:18;98104.00;;;18.80
11321;BMP180;5715;48.234;14.320;2023-11-21T11:48:11;98106.00;;;18.60
11321;BMP180;5715;48.234;14.320;2023-11-21T11:51:13;98109.00;;;18.70
11321;BMP180;5715;48.234;14.320;2023-11-21T11:54:08;98105.00;;;18.90
11321;BMP180;5715;48.234;14.320;2023-11-21T11:56:56;98107.00;;;18.70
11321;BMP180;5715;48.234;14.320;2023-11-21T12:00:33;98113.00;;;18.80
11321;BMP180;5715;48.234;14.320;2023-11-21T12:03:24;98108.00;;;18.90
11321;BMP180;5715;48.234;14.320;2023-11-21T12:06:12;98106.00;;;18.90
11321;BMP180;5715;48.234;14.320;2023-11-21T12:09:02;98110.00;;;18.80
11321;BMP180;5715;48.234;14.320;2023-11-21T12:11:54;98111.00;;;18.80
11321;BMP180;5715;48.234;14.320;2023-11-21T12:14:43;98106.00;;;18.70
11321;BMP180;5715;48.234;14.320;2023-11-21T12:17:32;98110.00;;;18.80
11321;BMP180;5715;48.234;14.320;2023-11-21T12:20:24;98097.00;;;18.60
11321;BMP180;5715;48.234;14.320;2023-11-21T12:23:12;98097.00;;;18.70
11321;BMP180;5715;48.234;14.320;2023-11-21T12:26:02;98100.00;;;18.60
11321;BMP180;5715;48.234;14.320;2023-11-21T12:28:54;98097.00;;;18.50
11321;BMP180;5715;48.234;14.320;2023-11-21T12:31:43;98099.00;;;18.40
11321;BMP180;5715;48.234;14.320;2023-11-21T12:34:33;98101.00;;;18.50
11321;BMP180;5715;48.234;14.320;2023-11-21T12:37:21;98096.00;;;18.60
11321;BMP180;5715;48.234;14.320;2023-11-21T12:40:10;98097.00;;;18.60
11321;BMP180;5715;48.234;14.320;2023-11-21T12:43:00;98095.00;;;18.70
11321;BMP180;5715;48.234;14.320;2023-11-21T12:46:08;98094.00;;;18.80
11321;BMP180;5715;48.234;14.320;2023-11-21T12:48:57;98093.00;;;18.60
11321;BMP180;5715;48.234;14.320;2023-11-21T12:51:48;98092.00;;;18.60
11321;BMP180;5715;48.234;14.320;2023-11-21T12:54:35;98088.00;;;18.70
11321;BMP180;5715;48.234;14.320;2023-11-21T12:57:27;98092.00;;;18.70
11321;BMP180;5715;48.234;14.320;2023-11-21T13:00:17;98093.00;;;18.70
11321;BMP180;5715;48.234;14.320;2023-11-21T13:03:16;98089.00;;;18.50
11321;BMP180;5715;48.234;14.320;2023-11-21T13:06:07;98090.00;;;18.50
11321;BMP180;5715;48.234;14.320;2023-11-21T13:08:55;98089.00;;;18.50
11321;BMP180;5715;48.234;14.320;2023-11-21T13:11:44;98086.00;;;18.40
11321;BMP180;5715;48.234;14.320;2023-11-21T13:14:34;98095.00;;;18.40
11321;BMP180;5715;48.234;14.320;2023-11-21T13:17:21;98088.00;;;18.50
11321;BMP180;5715;48.234;14.320;2023-11-21T13:20:12;98097.00;;;18.50
11321;BMP180;5715;48.234;14.320;2023-11-21T13:23:08;98101.00;;;18.60
11321;BMP180;5715;48.234;14.320;2023-11-21T13:25:58;98094.00;;;18.70
11321;BMP180;5715;48.234;14.320;2023-11-21T13:28:53;98099.00;;;18.60
11321;BMP180;5715;48.234;14.320;2023-11-21T13:31:41;98099.00;;;18.70
11321;BMP180;5715;48.234;14.320;2023-11-21T13:34:29;98102.00;;;18.50
11321;BMP180;5715;48.234;14.320;2023-11-21T13:37:20;98099.00;;;18.50
11321;BMP180;5715;48.234;14.320;2023-11-21T13:40:10;98110.00;;;18.50
11321;BMP180;5715;48.234;14.320;2023-11-21T13:43:01;98106.00;;;18.60
11321;BMP180;5715;48.234;14.320;2023-11-21T13:45:55;98108.00;;;18.40
11321;BMP180;5715;48.234;14.320;2023-11-21T13:48:55;98115.00;;;18.50
11321;BMP180;5715;48.234;14.320;2023-11-21T13:51:44;98108.00;;;18.40
11321;BMP180;5715;48.234;14.320;2023-11-21T13:54:33;98118.00;;;18.40
11321;BMP180;5715;48.234;14.320;2023-11-21T13:57:21;98121.00;;;18.40
11321;BMP180;5715;48.234;14.320;2023-11-21T14:00:09;98125.00;;;18.50
11321;BMP180;5715;48.234;14.320;2023-11-21T14:03:16;98122.00;;;18.50
11321;BMP180;5715;48.234;14.320;2023-11-21T14:06:09;98121.00;;;18.30
11321;BMP180;5715;48.234;14.320;2023-11-21T14:09:01;98130.00;;;18.20
11321;BMP180;5715;48.234;14.320;2023-11-21T14:11:56;98127.00;;;18.20
11321;BMP180;5715;48.234;14.320;2023-11-21T14:14:44;98134.00;;;18.20
11321;BMP180;5715;48.234;14.320;2023-11-21T14:17:33;98130.00;;;18.20
11321;BMP180;5715;48.234;14.320;2023-11-21T14:20:21;98140.00;;;18.00
11321;BMP180;5715;48.234;14.320;2023-11-21T14:23:10;98134.00;;;18.00
11321;BMP180;5715;48.234;14.320;2023-11-21T14:25:58;98143.00;;;18.10
11321;BMP180;5715;48.234;14.320;2023-11-21T14:28:46;98147.00;;;18.10
11321;BMP180;5715;48.234;14.320;2023-11-21T14:31:36;98145.00;;;18.00
11321;BMP180;5715;48.234;14.320;2023-11-21T14:34:24;98141.00;;;17.90
11321;BMP180;5715;48.234;14.320;2023-11-21T14:37:14;98149.00;;;17.70
11321;BMP180;5715;48.234;14.320;2023-11-21T14:40:01;98155.00;;;17.80
11321;BMP180;5715;48.234;14.320;2023-11-21T14:42:50;98153.00;;;17.70
11321;BMP180;5715;48.234;14.320;2023-11-21T14:45:39;98156.00;;;17.60
11321;BMP180;5715;48.234;14.320;2023-11-21T14:48:27;98160.00;;;17.60
11321;BMP180;5715;48.234;14.320;2023-11-21T14:51:30;98160.00;;;17.50
11321;BMP180;5715;48.234;14.320;2023-11-21T14:54:18;98156.00;;;17.50
11321;BMP180;5715;48.234;14.320;2023-11-21T14:57:14;98157.00;;;17.30
11321;BMP180;5715;48.234;14.320;2023-11-21T15:00:08;98155.00;;;17.30
11321;BMP180;5715;48.234;14.320;2023-11-21T15:03:15;98153.00;;;17.30
11321;BMP180;5715;48.234;14.320;2023-11-21T15:06:18;98155.00;;;17.30
11321;BMP180;5715;48.234;14.320;2023-11-21T15:09:07;98164.00;;;17.20
11321;BMP180;5715;48.234;14.320;2023-11-21T15:11:55;98166.00;;;17.20
11321;BMP180;5715;48.234;14.320;2023-11-21T15:14:51;98170.00;;;17.20
11321;BMP180;5715;48.234;14.320;2023-11-21T15:17:44;98172.00;;;17.20
11321;BMP180;5715;48.234;14.320;2023-11-21T15:20:33;98180.00;;;17.10
11321;BMP180;5715;48.234;14.320;2023-11-21T15:23:21;98180.00;;;17.10
11321;BMP180;5715;48.234;14.320;2023-11-21T15:26:08;98176.00;;;17.10
11321;BMP180;5715;48.234;14.320;2023-11-21T15:28:57;98183.00;;;17.00
11321;BMP180;5715;48.234;14.320;2023-11-21T15:31:44;98184.00;;;17.00
11321;BMP180;5715;48.234;14.320;2023-11-21T15:34:37;98180.00;;;16.90
11321;BMP180;5715;48.234;14.320;2023-11-21T15:37:25;98181.00;;;16.90
11321;BMP180;5715;48.234;14.320;2023-11-21T15:40:15;98187.00;;;16.80
11321;BMP180;5715;48.234;14.320;2023-11-21T15:43:04;98190.00;;;16.80
11321;BMP180;5715;48.234;14.320;2023-11-21T15:45:51;98190.00;;;16.90
11321;BMP180;5715;48.234;14.320;2023-11-21T15:48:39;98193.00;;;16.90
11321;BMP180;5715;48.234;14.320;2023-11-21T15:51:31;98196.00;;;16.90
11321;BMP180;5715;48.234;14.320;2023-11-21T15:54:27;98194.00;;;16.90
11321;BMP180;5715;48.234;14.320;2023-11-21T15:57:14;98205.00;;;16.90
11321;BMP180;5715;48.234;14.320;2023-11-21T16:00:05;98205.00;;;16.80
11321;BMP180;5715;48.234;14.320;2023-11-21T16:02:59;98210.00;;;16.80
11321;BMP180;5715;48.234;14.320;2023-11-21T16:05:46;98206.00;;;16.80
11321;BMP180;5715;48.234;14.320;2023-11-21T16:08:36;98215.00;;;16.90
11321;BMP180;5715;48.234;14.320;2023-11-21T16:11:24;98215.00;;;16.90
11321;BMP180;5715;48.234;14.320;2023-11-21T16:14:12;98218.00;;;16.80
11321;BMP180;5715;48.234;14.320;2023-11-21T16:16:59;98224.00;;;16.80
11321;BMP180;5715;48.234;14.320;2023-11-21T16:19:47;98224.00;;;16.80
11321;BMP180;5715;48.234;14.320;2023-11-21T16:22:35;98232.00;;;16.70
11321;BMP180;5715;48.234;14.320;2023-11-21T16:25:22;98218.00;;;16.70
11321;BMP180;5715;48.234;14.320;2023-11-21T16:28:10;98225.00;;;16.70